Time;durP1;ratioP1;P1;durP2;ratioP2;P2;SDS_P1;SDS_P2;PMS_P1;PMS_P2;Temp;Humidity;BMP_temperature;BMP_pressure;BME280_temperature;BME280_humidity;BME280_pressure;Samples;Min_cycle;Max_cycle;Signal;HPM_P1;HPM_P2
2023/11/29 00:01:04;;;;;;;14.05;12.05;;;;;;;4.13;100.00;98098.47;5095173;28;20024;-49
2023/11/29 00:03:29;;;;;;;24.23;14.25;;;;;;;3.89;100.00;98092.47;5093912;28;20085;-48
2023/11/29 00:05:55;;;;;;;10.85;8.90;;;;;;;3.72;100.00;98098.72;5076989;28;20022;-48
2023/11/29 00:08:21;;;;;;;16.67;13.60;;;;;;;3.58;100.00;98095.91;5095189;28;20553;-48
2023/11/29 00:10:46;;;;;;;11.13;8.88;;;;;;;3.57;100.00;98093.47;5093793;28;20028;-48
2023/11/29 00:13:13;;;;;;;12.50;8.98;;;;;;;3.63;100.00;98097.97;5095046;28;20485;-48
2023/11/29 00:15:39;;;;;;;14.50;11.70;;;;;;;3.68;100.00;98098.28;5095018;28;20550;-48
2023/11/29 00:18:04;;;;;;;14.95;10.05;;;;;;;3.91;100.00;98097.50;5094973;28;20123;-48
2023/11/29 00:20:30;;;;;;;15.60;13.95;;;;;;;4.13;100.00;98093.28;5095071;28;20115;-49
2023/11/29 00:22:57;;;;;;;16.50;12.38;;;;;;;4.15;100.00;98092.13;5094821;28;20020;-49
2023/11/29 00:25:22;;;;;;;17.08;15.27;;;;;;;4.14;100.00;98098.28;5094782;28;20509;-48
2023/11/29 00:27:48;;;;;;;11.45;8.48;;;;;;;4.29;100.00;98085.38;5094502;28;20123;-48
2023/11/29 00:30:14;;;;;;;12.52;8.35;;;;;;;4.67;100.00;98087.97;5094706;28;20059;-49
2023/11/29 00:32:40;;;;;;;16.83;11.43;;;;;;;5.19;100.00;98084.50;5093359;28;20375;-49
2023/11/29 00:35:06;;;;;;;12.80;9.75;;;;;;;5.77;100.00;98081.94;5093292;28;20024;-48
2023/11/29 00:37:32;;;;;;;13.57;10.57;;;;;;;5.96;100.00;98080.56;5094623;28;20499;-49
2023/11/29 00:39:57;;;;;;;14.23;12.27;;;;;;;5.60;100.00;98085.78;5093155;28;20058;-48
2023/11/29 00:42:23;;;;;;;15.23;12.57;;;;;;;5.17;100.00;98088.25;5094442;28;20020;-48
2023/11/29 00:44:52;;;;;;;17.23;12.93;;;;;;;4.70;100.00;98089.41;5093953;28;20082;-49
2023/11/29 00:47:19;;;;;;;17.33;12.23;;;;;;;4.47;100.00;98089.47;5094411;28;20016;-49
2023/11/29 00:49:45;;;;;;;16.20;11.60;;;;;;;4.42;100.00;98094.34;5094363;28;20016;-48
2023/11/29 00:52:10;;;;;;;35.25;30.80;;;;;;;4.10;100.00;98089.22;5094274;28;20039;-48
2023/11/29 00:54:36;;;;;;;17.63;15.73;;;;;;;4.08;100.00;98086.00;5092946;28;20089;-49
2023/11/29 00:57:02;;;;;;;17.42;15.60;;;;;;;3.86;100.00;98095.41;5092857;28;20078;-49
2023/11/29 00:59:28;;;;;;;18.58;16.13;;;;;;;4.15;100.00;98099.13;5094242;28;20509;-49
2023/11/29 01:01:54;;;;;;;15.20;12.77;;;;;;;4.10;100.00;98097.03;5092736;28;20035;-49
2023/11/29 01:04:20;;;;;;;17.65;13.40;;;;;;;4.04;100.00;98089.13;5094128;28;20048;-49
2023/11/29 01:06:45;;;;;;;16.85;13.88;;;;;;;3.96;100.00;98088.22;5094045;28;20100;-49
2023/11/29 01:09:12;;;;;;;14.23;11.30;;;;;;;3.90;100.00;98099.25;5094220;28;20024;-49
2023/11/29 01:11:38;;;;;;;22.75;19.10;;;;;;;4.04;100.00;98094.31;5092601;28;20870;-49
2023/11/29 01:14:03;;;;;;;21.52;17.05;;;;;;;4.05;100.00;98094.16;5093951;28;20074;-48
2023/11/29 01:16:29;;;;;;;20.20;13.20;;;;;;;3.90;100.00;98101.06;5093827;28;20436;-49
2023/11/29 01:18:55;;;;;;;31.35;25.17;;;;;;;3.69;100.00;98102.47;5093789;28;20392;-49
2023/11/29 01:21:21;;;;;;;18.75;15.40;;;;;;;3.54;100.00;98110.19;5092351;28;20024;-49
2023/11/29 01:23:46;;;;;;;20.52;14.35;;;;;;;3.46;100.00;98107.63;5093674;28;20077;-48
2023/11/29 01:26:12;;;;;;;18.25;12.68;;;;;;;3.63;100.00;98107.56;5092332;28;20401;-46
2023/11/29 01:28:38;;;;;;;17.13;11.23;;;;;;;3.73;100.00;98105.53;5093424;28;20505;-47
2023/11/29 01:31:08;;;;;;;20.02;17.15;;;;;;;3.57;100.00;98102.03;5093543;28;20040;-46
2023/11/29 01:33:34;;;;;;;16.40;11.98;;;;;;;3.39;100.00;98099.69;5092203;28;20051;-46
2023/11/29 01:36:10;;;;;;;22.60;16.08;;;;;;;3.19;100.00;98104.47;5093469;28;20075;-47
2023/11/29 01:38:36;;;;;;;17.70;12.15;;;;;;;2.98;100.00;98110.22;5093440;28;20022;-46
2023/11/29 01:41:05;;;;;;;21.50;18.55;;;;;;;2.77;100.00;98108.13;5091976;28;20036;-46
2023/11/29 01:43:31;;;;;;;13.10;9.80;;;;;;;2.63;100.00;98102.81;5091988;28;20103;-46
2023/11/29 01:45:57;;;;;;;12.10;9.75;;;;;;;2.46;100.00;98104.63;5093168;28;20028;-47
2023/11/29 01:48:25;;;;;;;14.60;12.48;;;;;;;2.30;100.00;98100.25;5093202;28;20046;-46
2023/11/29 01:50:52;;;;;;;16.65;14.88;;;;;;;2.10;100.00;98095.41;5093424;28;20032;-47
2023/11/29 01:53:21;;;;;;;20.83;14.65;;;;;;;1.99;100.00;98100.88;5091766;28;20081;-47
2023/11/29 01:55:53;;;;;;;20.08;14.82;;;;;;;2.02;100.00;98097.97;5092996;28;20024;-47
2023/11/29 01:58:23;;;;;;;14.18;11.65;;;;;;;1.96;100.00;98085.69;5090863;28;20513;-47
2023/11/29 02:00:49;;;;;;;20.35;12.57;;;;;;;1.83;100.00;98085.31;5092912;28;20069;-47
2023/11/29 02:03:17;;;;;;;13.48;10.38;;;;;;;1.68;100.00;98087.72;5092902;28;20394;-47
2023/11/29 02:05:43;;;;;;;16.95;10.45;;;;;;;1.65;100.00;98085.44;5092874;28;20035;-47
2023/11/29 02:08:09;;;;;;;18.58;11.48;;;;;;;1.65;100.00;98085.44;5093116;28;20023;-47
2023/11/29 02:10:35;;;;;;;13.98;10.85;;;;;;;1.65;100.00;98086.28;5091332;28;20032;-47
2023/11/29 02:13:01;;;;;;;30.25;19.08;;;;;;;1.67;100.00;98076.59;5091433;28;20020;-46
2023/11/29 02:15:27;;;;;;;20.58;10.73;;;;;;;1.83;100.00;98082.75;5092669;28;20020;-46
2023/11/29 02:17:52;;;;;;;21.10;13.20;;;;;;;2.62;100.00;98077.88;5092919;28;20053;-47
2023/11/29 02:20:18;;;;;;;41.17;34.45;;;;;;;2.99;100.00;98070.34;5092477;28;20501;-47
2023/11/29 02:23:13;;;;;;;56.60;44.33;;;;;;;2.99;100.00;98082.50;5091304;28;20498;-47
2023/11/29 02:25:39;;;;;;;72.00;53.80;;;;;;;3.19;100.00;98081.13;5079110;28;20041;-47
2023/11/29 02:28:05;;;;;;;20.13;15.65;;;;;;;3.32;100.00;98072.84;5092187;28;20051;-47
2023/11/29 02:30:30;;;;;;;17.30;15.02;;;;;;;3.36;100.00;98070.69;5091100;28;20088;-47
2023/11/29 02:32:56;;;;;;;34.58;28.52;;;;;;;3.43;100.00;98076.03;5092393;28;20027;-47
2023/11/29 02:35:21;;;;;;;19.88;14.00;;;;;;;3.39;100.00;98076.34;5090988;28;20024;-46
2023/11/29 02:37:47;;;;;;;68.55;61.20;;;;;;;3.14;100.00;98075.66;5092547;28;20478;-46
2023/11/29 02:40:13;;;;;;;15.48;12.88;;;;;;;3.10;100.00;98076.16;5092183;28;20022;-46
2023/11/29 02:42:39;;;;;;;18.88;15.27;;;;;;;3.00;100.00;98071.19;5092343;28;20020;-47
2023/11/29 02:45:05;;;;;;;15.00;13.38;;;;;;;3.06;100.00;98070.50;5090841;28;20048;-46
2023/11/29 02:47:31;;;;;;;18.02;14.70;;;;;;;3.01;100.00;98077.97;5090875;28;20085;-46
2023/11/29 02:49:56;;;;;;;21.42;19.13;;;;;;;3.32;100.00;98075.44;5090865;28;20020;-46
2023/11/29 02:52:22;;;;;;;16.65;14.85;;;;;;;3.58;100.00;98074.31;5090770;28;20073;-46
2023/11/29 02:54:48;;;;;;;24.23;21.60;;;;;;;3.79;100.00;98071.13;5092086;28;20020;-46
2023/11/29 02:57:13;;;;;;;12.77;10.35;;;;;;;4.02;100.00;98071.13;5090737;28;20028;-46
2023/11/29 02:59:39;;;;;;;35.33;30.17;;;;;;;4.01;100.00;98061.72;5092026;28;20563;-46
2023/11/29 03:02:05;;;;;;;92.38;82.38;;;;;;;3.87;100.00;98060.69;5091922;28;20020;-47
2023/11/29 03:04:31;;;;;;;39.50;32.97;;;;;;;3.89;100.00;98066.50;5090579;28;20024;-47
2023/11/29 03:06:56;;;;;;;148.45;132.55;;;;;;;3.89;100.00;98063.91;5090587;28;20024;-47
2023/11/29 03:09:22;;;;;;;59.38;52.92;;;;;;;3.93;100.00;98065.19;5091694;28;20063;-47
2023/11/29 03:11:47;;;;;;;18.58;12.60;;;;;;;3.88;100.00;98062.28;5090601;28;20027;-47
2023/11/29 03:14:13;;;;;;;16.42;13.30;;;;;;;3.69;100.00;98066.16;5091871;28;20024;-47
2023/11/29 03:16:39;;;;;;;13.43;10.68;;;;;;;3.69;100.00;98065.34;5092087;28;20478;-47
2023/11/29 03:19:04;;;;;;;12.95;10.27;;;;;;;3.61;100.00;98071.38;5091799;28;20016;-47
2023/11/29 03:21:30;;;;;;;10.02;7.63;;;;;;;3.91;100.00;98063.75;5091725;28;20045;-47
2023/11/29 03:23:56;;;;;;;12.65;11.32;;;;;;;4.32;100.00;98069.41;5091799;28;20393;-46
2023/11/29 03:26:22;;;;;;;22.85;19.77;;;;;;;4.60;100.00;98054.06;5091699;28;20020;-47
2023/11/29 03:28:47;;;;;;;109.10;98.00;;;;;;;4.38;100.00;98058.31;5090195;28;20051;-47
2023/11/29 03:31:13;;;;;;;96.32;86.82;;;;;;;4.08;100.00;98054.84;5091677;28;20054;-47
2023/11/29 03:33:38;;;;;;;26.15;23.20;;;;;;;3.87;100.00;98050.31;5091779;28;20118;-47
2023/11/29 03:36:04;;;;;;;14.32;12.80;;;;;;;3.69;100.00;98058.38;5091679;28;20095;-47
2023/11/29 03:38:30;;;;;;;13.40;12.10;;;;;;;3.69;100.00;98052.38;5090331;28;20494;-47
2023/11/29 03:40:56;;;;;;;10.95;8.57;;;;;;;3.55;100.00;98041.75;5091584;28;20020;-47
2023/11/29 03:43:21;;;;;;;10.73;7.60;;;;;;;3.15;100.00;98045.34;5090352;28;20509;-47
2023/11/29 03:45:47;;;;;;;10.05;8.57;;;;;;;2.57;100.00;98044.72;5091654;28;20047;-47
2023/11/29 03:48:13;;;;;;;30.65;27.27;;;;;;;2.14;100.00;98044.91;5090249;28;20032;-47
2023/11/29 03:50:38;;;;;;;12.30;9.88;;;;;;;2.09;100.00;98044.59;5091517;28;20024;-47
2023/11/29 03:53:04;;;;;;;9.18;8.20;;;;;;;2.50;100.00;98046.34;5090242;28;20516;-46
2023/11/29 03:55:30;;;;;;;16.35;14.68;;;;;;;2.92;100.00;98053.06;5090162;28;20034;-47
2023/11/29 03:57:55;;;;;;;8.93;7.30;;;;;;;3.32;100.00;98057.28;5090093;28;20406;-47
2023/11/29 04:00:23;;;;;;;9.38;8.15;;;;;;;3.58;100.00;98054.38;5091355;28;20136;-47
2023/11/29 04:02:48;;;;;;;10.05;8.13;;;;;;;3.52;100.00;98042.09;5091523;28;20103;-47
2023/11/29 04:05:14;;;;;;;14.70;7.45;;;;;;;3.38;100.00;98048.81;5091345;28;20450;-47
2023/11/29 04:07:40;;;;;;;14.90;9.88;;;;;;;3.45;100.00;98045.53;5091411;28;20394;-47
2023/11/29 04:10:06;;;;;;;12.55;11.32;;;;;;;3.62;100.00;98043.66;5090007;28;20020;-47
2023/11/29 04:12:32;;;;;;;31.52;28.17;;;;;;;3.66;100.00;98035.34;5091323;28;20548;-47
2023/11/29 04:14:58;;;;;;;12.23;7.88;;;;;;;3.78;100.00;98035.75;5090028;28;20024;-47
2023/11/29 04:17:23;;;;;;;11.25;8.32;;;;;;;4.13;100.00;98042.16;5089930;28;20557;-47
2023/11/29 04:19:49;;;;;;;11.38;8.65;;;;;;;4.35;100.00;98030.13;5090093;28;20016;-47
2023/11/29 04:22:14;;;;;;;13.77;7.53;;;;;;;4.28;100.00;98028.41;5093500;28;20020;-47
2023/11/29 04:24:40;;;;;;;8.85;7.03;;;;;;;4.22;100.00;98035.09;5094904;28;20027;-47
2023/11/29 04:27:06;;;;;;;23.83;17.48;;;;;;;4.29;100.00;98024.81;5093257;28;20031;-47
2023/11/29 04:29:31;;;;;;;11.60;9.18;;;;;;;4.31;100.00;98021.06;5094810;28;20079;-47
2023/11/29 04:31:57;;;;;;;12.20;7.45;;;;;;;4.47;100.00;98016.72;5094685;28;20028;-47
2023/11/29 04:34:23;;;;;;;11.90;7.45;;;;;;;4.66;100.00;98018.75;5094686;28;20520;-47
2023/11/29 04:36:49;;;;;;;10.85;6.88;;;;;;;4.59;100.00;98015.28;5093328;28;20024;-47
2023/11/29 04:39:14;;;;;;;14.07;10.77;;;;;;;4.43;100.00;98013.66;5093257;28;20418;-47
2023/11/29 04:41:40;;;;;;;9.77;6.88;;;;;;;4.24;100.00;98014.94;5093112;28;20028;-47
2023/11/29 04:44:08;;;;;;;17.80;8.77;;;;;;;4.09;100.00;98012.31;5093214;28;20027;-47
2023/11/29 04:46:34;;;;;;;14.60;8.40;;;;;;;3.94;100.00;98014.06;5094472;28;20515;-47
2023/11/29 04:49:00;;;;;;;17.33;6.85;;;;;;;3.77;100.00;98014.19;5093113;28;20055;-46
2023/11/29 04:51:26;;;;;;;12.05;6.93;;;;;;;3.31;99.62;98015.94;5094346;28;20120;-47
2023/11/29 04:53:52;;;;;;;12.57;9.88;;;;;;;2.86;99.45;98018.25;5094299;28;20020;-47
2023/11/29 04:56:18;;;;;;;10.40;6.93;;;;;;;2.40;98.93;98025.81;5092939;28;20024;-47
2023/11/29 04:58:46;;;;;;;20.58;13.98;;;;;;;1.97;99.48;98017.41;5092919;28;20020;-46
2023/11/29 05:01:12;;;;;;;11.63;6.63;;;;;;;1.71;100.00;98018.41;5094077;28;20046;-46
2023/11/29 05:03:39;;;;;;;9.13;6.18;;;;;;;1.47;100.00;98026.09;5094116;28;20028;-46
2023/11/29 05:06:12;;;;;;;11.10;6.80;;;;;;;1.31;100.00;98030.28;5094112;28;20070;-47
2023/11/29 05:08:38;;;;;;;7.68;6.63;;;;;;;1.15;100.00;98028.44;5094089;28;20043;-46
2023/11/29 05:11:04;;;;;;;9.07;5.95;;;;;;;1.25;100.00;98027.50;5093988;28;20024;-46
2023/11/29 05:13:34;;;;;;;9.30;7.47;;;;;;;1.39;100.00;98032.88;5092611;28;20020;-46
2023/11/29 05:16:00;;;;;;;12.45;7.28;;;;;;;1.42;100.00;98038.69;5093871;28;20027;-46
2023/11/29 05:18:26;;;;;;;10.82;6.68;;;;;;;2.11;100.00;98027.16;5092548;28;20444;-46
2023/11/29 05:20:52;;;;;;;11.95;8.93;;;;;;;2.97;100.00;98019.66;5092391;28;20086;-46
2023/11/29 05:23:18;;;;;;;8.85;6.97;;;;;;;3.65;100.00;98023.38;5092389;28;20024;-47
2023/11/29 05:25:43;;;;;;;11.48;7.45;;;;;;;3.90;100.00;98007.59;5093694;28;20116;-46
2023/11/29 05:28:09;;;;;;;14.35;8.38;;;;;;;4.27;100.00;98006.03;5093534;28;20506;-47
2023/11/29 05:30:35;;;;;;;16.80;7.88;;;;;;;4.56;100.00;98000.84;5093572;28;20439;-46
2023/11/29 05:33:03;;;;;;;22.05;19.65;;;;;;;4.62;100.00;98008.91;5093475;28;20393;-47
2023/11/29 05:35:31;;;;;;;11.18;6.82;;;;;;;4.58;100.00;98009.25;5093381;28;20080;-46
2023/11/29 05:37:57;;;;;;;17.85;13.93;;;;;;;4.59;100.00;98004.88;5092161;28;20531;-47
2023/11/29 05:40:23;;;;;;;27.17;11.25;;;;;;;4.66;100.00;98012.75;5091959;28;20032;-47
2023/11/29 05:42:48;;;;;;;11.00;7.55;;;;;;;4.62;100.00;98007.13;5093319;28;20379;-47
2023/11/29 05:45:14;;;;;;;19.40;8.98;;;;;;;4.47;100.00;98009.72;5091991;28;20398;-47
2023/11/29 05:47:40;;;;;;;13.40;7.30;;;;;;;4.30;100.00;98013.44;5091990;28;20401;-47
2023/11/29 05:50:07;;;;;;;13.05;8.73;;;;;;;3.93;99.36;98009.88;5093176;28;20024;-47
2023/11/29 05:52:32;;;;;;;32.28;22.30;;;;;;;3.59;99.83;98016.28;5093223;28;20020;-47
2023/11/29 05:55:01;;;;;;;19.95;10.95;;;;;;;3.52;100.00;98015.31;5091757;28;20024;-47
2023/11/29 05:57:27;;;;;;;18.17;8.73;;;;;;;3.46;100.00;98019.44;5091742;28;20031;-47
2023/11/29 05:59:58;;;;;;;11.63;8.35;;;;;;;3.52;100.00;98015.31;5091715;28;20482;-47
2023/11/29 06:02:23;;;;;;;16.92;7.45;;;;;;;3.63;100.00;98021.94;5093157;28;20397;-47
2023/11/29 06:04:49;;;;;;;17.08;9.18;;;;;;;3.68;100.00;98017.00;5091634;28;20028;-47
2023/11/29 06:07:15;;;;;;;12.07;8.85;;;;;;;3.63;100.00;98019.34;5092833;28;20031;-47
2023/11/29 06:09:41;;;;;;;24.15;17.40;;;;;;;3.20;100.00;98023.13;5092861;28;20394;-47
2023/11/29 06:12:07;;;;;;;17.77;10.45;;;;;;;2.77;100.00;98020.03;5092714;28;20023;-47
2023/11/29 06:14:33;;;;;;;16.70;12.32;;;;;;;2.43;100.00;98012.53;5092793;28;20265;-47
2023/11/29 06:16:58;;;;;;;20.70;10.65;;;;;;;2.06;100.00;98013.88;5091343;28;20397;-47
2023/11/29 06:19:24;;;;;;;11.60;9.05;;;;;;;1.72;100.00;98020.00;5091328;28;20099;-47
2023/11/29 06:21:50;;;;;;;15.55;9.65;;;;;;;1.49;100.00;98013.81;5092486;28;20026;-47
2023/11/29 06:24:15;;;;;;;13.98;12.52;;;;;;;1.32;100.00;98021.53;5091276;28;20023;-47
2023/11/29 06:26:41;;;;;;;13.70;8.95;;;;;;;1.26;100.00;98034.28;5092494;28;20031;-47
2023/11/29 06:29:10;;;;;;;19.73;14.30;;;;;;;1.28;100.00;98033.16;5090953;28;20051;-47
2023/11/29 06:31:39;;;;;;;19.48;9.35;;;;;;;1.22;100.00;98033.78;5092470;28;20098;-47
2023/11/29 06:34:07;;;;;;;14.90;13.27;;;;;;;1.14;100.00;98036.34;5092379;28;20028;-47
2023/11/29 06:36:34;;;;;;;11.27;7.85;;;;;;;1.00;100.00;98030.00;5091025;28;20123;-47
2023/11/29 06:39:00;;;;;;;11.38;7.70;;;;;;;0.95;100.00;98038.22;5092408;28;20016;-46
2023/11/29 06:41:26;;;;;;;16.92;10.45;;;;;;;0.98;100.00;98048.22;5092212;28;20021;-46
2023/11/29 06:43:53;;;;;;;76.20;64.32;;;;;;;1.14;100.00;98041.50;5091740;28;20425;-46
2023/11/29 06:46:19;;;;;;;21.40;14.15;;;;;;;1.48;100.00;98035.47;5092276;28;20615;-47
2023/11/29 06:48:45;;;;;;;16.55;8.88;;;;;;;1.82;100.00;98043.13;5090849;28;20062;-47
2023/11/29 06:51:11;;;;;;;15.40;9.13;;;;;;;2.02;100.00;98042.84;5090785;28;20080;-47
2023/11/29 06:53:37;;;;;;;65.72;58.65;;;;;;;2.26;100.00;98042.00;5092140;28;20490;-47
2023/11/29 06:56:04;;;;;;;18.55;15.23;;;;;;;2.74;100.00;98041.13;5092101;28;20047;-47
2023/11/29 06:58:30;;;;;;;15.75;10.73;;;;;;;3.00;100.00;98035.69;5092046;28;20024;-47
2023/11/29 07:00:55;;;;;;;61.22;47.28;;;;;;;2.82;100.00;98042.06;5091964;28;20027;-47
2023/11/29 07:03:21;;;;;;;63.15;51.92;;;;;;;2.45;100.00;98044.25;5091906;28;20476;-47
2023/11/29 07:05:47;;;;;;;127.05;104.00;;;;;;;2.32;100.00;98036.19;5091886;28;20031;-47
2023/11/29 07:08:13;;;;;;;41.63;36.97;;;;;;;2.43;100.00;98033.25;5092134;28;20066;-47
2023/11/29 07:10:38;;;;;;;41.75;30.48;;;;;;;3.01;100.00;98026.13;5091785;28;20039;-47
2023/11/29 07:13:05;;;;;;;35.15;27.25;;;;;;;3.97;100.00;98029.31;5090519;28;20462;-47
2023/11/29 07:15:31;;;;;;;27.88;25.17;;;;;;;4.78;100.00;98016.53;5091874;28;20038;-47
2023/11/29 07:17:59;;;;;;;66.70;59.83;;;;;;;5.44;100.00;98018.34;5090542;28;20448;-47
2023/11/29 07:20:25;;;;;;;34.08;21.92;;;;;;;6.16;100.00;98010.41;5091711;28;20020;-47
2023/11/29 07:22:50;;;;;;;22.73;13.60;;;;;;;6.71;98.58;98013.19;5090562;28;20020;-48
2023/11/29 07:25:16;;;;;;;29.00;11.48;;;;;;;7.08;96.16;98015.56;5090433;28;20031;-47
2023/11/29 07:27:42;;;;;;;26.85;10.88;;;;;;;7.35;94.02;98019.91;5090152;28;20036;-49
2023/11/29 07:30:08;;;;;;;20.80;9.55;;;;;;;7.64;91.96;98015.34;5091669;28;20024;-49
2023/11/29 07:32:34;;;;;;;21.60;9.93;;;;;;;7.79;90.28;98016.00;5091659;28;20107;-49
2023/11/29 07:34:59;;;;;;;20.42;9.50;;;;;;;7.86;86.04;98010.78;5090366;28;20114;-49
2023/11/29 07:37:26;;;;;;;25.05;10.95;;;;;;;8.16;86.55;98013.81;5090324;28;20035;-49
2023/11/29 07:39:52;;;;;;;17.20;10.00;;;;;;;8.62;82.59;98012.19;5091591;28;20561;-49
2023/11/29 07:42:18;;;;;;;22.73;9.85;;;;;;;9.03;79.64;98010.28;5091522;28;20024;-49
2023/11/29 07:44:44;;;;;;;21.88;9.23;;;;;;;8.83;75.79;98016.34;5091608;28;20016;-49
2023/11/29 07:47:10;;;;;;;13.85;7.35;;;;;;;8.04;76.32;98012.81;5091527;28;20020;-50
2023/11/29 07:49:36;;;;;;;15.30;7.60;;;;;;;7.43;77.64;98025.97;5090252;28;20042;-49
2023/11/29 07:52:02;;;;;;;85.05;56.30;;;;;;;7.17;76.92;98024.88;5091528;28;20016;-49
2023/11/29 07:54:28;;;;;;;23.42;14.65;;;;;;;6.97;77.55;98035.22;5091441;28;20114;-49
2023/11/29 07:56:54;;;;;;;15.68;9.25;;;;;;;6.81;74.98;98041.53;5093657;28;20177;-49
2023/11/29 07:59:20;;;;;;;13.07;10.75;;;;;;;6.53;74.93;98044.16;5095409;28;20035;-49
2023/11/29 08:01:46;;;;;;;12.55;8.73;;;;;;;6.18;74.64;98051.94;5095248;28;20066;-49
2023/11/29 08:04:12;;;;;;;13.85;8.63;;;;;;;5.95;76.77;98058.13;5095217;28;20024;-49
2023/11/29 08:06:38;;;;;;;13.95;7.95;;;;;;;6.20;78.18;98060.34;5095276;28;20103;-49
2023/11/29 08:09:03;;;;;;;22.38;10.02;;;;;;;6.40;78.20;98050.91;5095227;28;20116;-49
2023/11/29 08:11:29;;;;;;;10.88;8.13;;;;;;;6.56;78.93;98057.63;5093901;28;20059;-49
2023/11/29 08:13:55;;;;;;;13.82;7.55;;;;;;;6.76;78.51;98049.13;5095037;28;20024;-49
2023/11/29 08:16:21;;;;;;;17.60;8.63;;;;;;;7.24;77.33;98043.94;5093696;28;20065;-49
2023/11/29 08:18:47;;;;;;;14.10;8.43;;;;;;;8.16;75.74;98044.38;5095030;28;20031;-49
2023/11/29 08:21:13;;;;;;;15.07;8.02;;;;;;;8.79;74.56;98038.72;5093558;28;20115;-49
2023/11/29 08:23:39;;;;;;;10.35;7.13;;;;;;;9.38;74.50;98042.97;5094918;28;20024;-49
2023/11/29 08:26:05;;;;;;;10.60;7.32;;;;;;;9.95;72.00;98044.88;5093557;28;20047;-49
2023/11/29 08:28:31;;;;;;;14.20;7.95;;;;;;;10.32;67.08;98042.41;5094581;28;20081;-50
2023/11/29 08:30:56;;;;;;;14.50;7.45;;;;;;;10.76;65.35;98041.38;5093530;28;20430;-49
2023/11/29 08:33:22;;;;;;;13.27;8.80;;;;;;;11.19;66.30;98031.88;5093486;28;20426;-48
2023/11/29 08:35:48;;;;;;;18.98;10.18;;;;;;;11.50;66.08;98027.44;5094730;28;20440;-47
2023/11/29 08:38:14;;;;;;;18.73;8.57;;;;;;;11.78;65.84;98038.16;5094662;28;20022;-48
2023/11/29 08:40:41;;;;;;;11.00;8.25;;;;;;;12.02;64.66;98035.63;5093306;28;20032;-47
2023/11/29 08:43:06;;;;;;;30.35;13.48;;;;;;;12.34;62.45;98028.25;5093405;28;20451;-48
2023/11/29 08:45:33;;;;;;;26.63;9.43;;;;;;;12.52;59.07;98016.03;5093129;28;20028;-48
2023/11/29 08:47:59;;;;;;;19.73;8.43;;;;;;;12.52;59.62;98011.56;5094492;28;20389;-48
2023/11/29 08:50:25;;;;;;;17.02;8.15;;;;;;;12.77;58.45;98007.88;5094416;28;20051;-48
2023/11/29 08:52:51;;;;;;;35.22;14.75;;;;;;;13.17;57.63;98020.28;5094382;28;20485;-48
2023/11/29 08:55:18;;;;;;;18.42;9.85;;;;;;;13.50;54.84;98019.63;5094254;28;20108;-48
2023/11/29 08:57:45;;;;;;;26.08;8.68;;;;;;;13.96;53.64;98017.00;5093143;28;20020;-48
2023/11/29 09:00:11;;;;;;;22.90;10.35;;;;;;;14.19;51.70;98008.94;5092793;28;20494;-48
2023/11/29 09:02:37;;;;;;;26.95;8.80;;;;;;;14.44;49.67;97999.00;5092860;28;20038;-48
2023/11/29 09:05:03;;;;;;;18.48;12.60;;;;;;;14.61;49.00;97997.16;5094160;28;20039;-48
2023/11/29 09:07:29;;;;;;;22.95;9.07;;;;;;;14.63;48.45;97999.53;5092356;28;20023;-48
2023/11/29 09:09:56;;;;;;;13.95;8.40;;;;;;;14.67;48.16;98003.28;5092716;28;20028;-48
2023/11/29 09:12:25;;;;;;;19.95;9.13;;;;;;;14.87;46.69;98000.13;5094228;28;20398;-48
2023/11/29 09:14:57;;;;;;;20.88;10.20;;;;;;;15.09;47.51;97998.31;5093898;28;20142;-48
2023/11/29 09:17:23;;;;;;;21.38;8.52;;;;;;;15.37;45.93;97999.13;5092589;28;20054;-48
2023/11/29 09:19:55;;;;;;;12.80;8.60;;;;;;;15.49;46.11;97999.81;5092571;28;20557;-48
2023/11/29 09:22:22;;;;;;;21.77;9.35;;;;;;;15.62;45.17;98000.47;5093678;28;20405;-48
2023/11/29 09:24:48;;;;;;;20.05;16.15;;;;;;;15.85;44.81;98002.81;5093800;28;20035;-48
2023/11/29 09:27:14;;;;;;;13.57;7.95;;;;;;;15.91;45.62;98003.66;5093363;28;20023;-49
2023/11/29 09:29:40;;;;;;;17.20;8.88;;;;;;;15.92;44.34;97999.97;5093749;28;20110;-48
2023/11/29 09:32:06;;;;;;;15.85;10.38;;;;;;;16.17;44.08;98002.81;5093575;28;20028;-48
2023/11/29 09:34:32;;;;;;;12.27;8.43;;;;;;;16.41;43.94;97999.81;5093589;28;20551;-48
2023/11/29 09:37:00;;;;;;;11.13;9.90;;;;;;;16.52;43.54;98003.31;5093487;28;20028;-48
2023/11/29 09:39:30;;;;;;;10.48;8.00;;;;;;;16.77;44.22;97990.22;5075680;28;20016;-48
2023/11/29 09:41:56;;;;;;;10.43;8.95;;;;;;;16.99;42.27;97991.13;5093516;28;20035;-48
2023/11/29 09:44:27;;;;;;;18.98;15.23;;;;;;;17.22;42.66;97980.06;5093355;28;20016;-48
2023/11/29 09:46:53;;;;;;;17.90;12.98;;;;;;;17.20;42.37;97971.56;5092048;28;20032;-48
2023/11/29 09:49:19;;;;;;;14.25;12.95;;;;;;;17.14;41.46;97967.31;5093266;28;20085;-48
2023/11/29 09:51:46;;;;;;;13.35;12.00;;;;;;;17.24;41.54;97955.94;5091856;28;20031;-48
2023/11/29 09:54:12;;;;;;;22.00;10.80;;;;;;;17.59;42.16;97957.88;5093145;28;20027;-48
2023/11/29 09:56:38;;;;;;;16.95;11.02;;;;;;;17.82;41.21;97945.94;5093268;28;20103;-48
2023/11/29 09:59:04;;;;;;;15.90;14.23;;;;;;;17.84;41.34;97946.50;5091701;28;20524;-48
2023/11/29 10:01:46;;;;;;;22.73;20.33;;;;;;;17.89;41.08;97941.22;5091958;28;20020;-45
2023/11/29 10:04:13;;;;;;;10.68;9.57;;;;;;;18.15;40.98;97943.84;5092937;28;20363;-46
2023/11/29 10:06:39;;;;;;;14.05;7.53;;;;;;;17.95;40.00;97944.66;5092931;28;20024;-46
2023/11/29 10:09:13;;;;;;;18.48;8.43;;;;;;;18.08;40.50;97938.78;5092904;28;20020;-46
2023/11/29 10:11:43;;;;;;;17.23;10.05;;;;;;;18.47;41.47;97948.00;5092813;28;20498;-47
2023/11/29 10:14:10;;;;;;;18.38;8.82;;;;;;;18.68;39.22;97941.59;5092817;28;20035;-46
2023/11/29 10:16:36;;;;;;;13.45;12.20;;;;;;;18.79;37.69;97936.22;5092740;28;20026;-46
2023/11/29 10:19:04;;;;;;;25.67;16.25;;;;;;;18.79;38.27;97929.06;5091943;28;20493;-46
2023/11/29 10:21:30;;;;;;;21.55;9.27;;;;;;;18.83;38.58;97935.44;5092631;28;20016;-46
2023/11/29 10:23:56;;;;;;;31.55;14.75;;;;;;;18.89;38.49;97921.03;5092574;28;20043;-46
2023/11/29 10:26:22;;;;;;;32.75;10.05;;;;;;;18.61;37.51;97914.47;5092572;28;20055;-46
2023/11/29 10:28:48;;;;;;;18.25;9.27;;;;;;;18.29;38.25;97912.19;5092212;28;20048;-46
2023/11/29 10:31:16;;;;;;;12.02;7.50;;;;;;;18.15;38.45;97906.66;5092475;28;20093;-46
2023/11/29 10:33:45;;;;;;;17.95;7.43;;;;;;;17.99;38.21;97902.41;5092447;28;20073;-45
2023/11/29 10:36:11;;;;;;;23.27;11.82;;;;;;;17.52;38.89;97894.44;5092416;28;20028;-45
2023/11/29 10:38:43;;;;;;;9.98;7.00;;;;;;;17.17;39.73;97895.22;5092458;28;20047;-46
2023/11/29 10:41:10;;;;;;;19.70;8.15;;;;;;;16.80;41.20;97896.13;5092300;28;20024;-46
2023/11/29 10:43:38;;;;;;;11.88;7.82;;;;;;;16.33;41.11;97891.72;5090989;28;20409;-45
2023/11/29 10:46:24;;;;;;;16.55;6.65;;;;;;;16.15;42.58;97877.84;5090901;28;20024;-46
2023/11/29 10:49:01;;;;;;;20.17;7.95;;;;;;;16.80;41.78;97864.34;5092226;28;20104;-45
2023/11/29 10:51:28;;;;;;;11.05;8.88;;;;;;;17.45;41.05;97845.41;5092192;28;20497;-46
2023/11/29 10:53:55;;;;;;;25.88;8.18;;;;;;;18.01;40.04;97840.03;5092399;28;20413;-46
2023/11/29 10:56:22;;;;;;;19.60;7.47;;;;;;;18.39;39.11;97829.84;5090856;28;20024;-45
2023/11/29 10:59:13;;;;;;;10.40;7.05;;;;;;;18.73;39.37;97829.13;5092098;28;20113;-46
2023/11/29 11:01:41;;;;;;;12.10;7.28;;;;;;;18.87;38.32;97821.38;5090745;28;20123;-46
2023/11/29 11:04:09;;;;;;;16.63;6.60;;;;;;;18.58;37.99;97807.97;5092243;28;20027;-46
2023/11/29 11:06:36;;;;;;;11.30;7.10;;;;;;;17.94;38.08;97808.44;5091908;28;20032;-46
2023/11/29 11:09:06;;;;;;;6.90;6.20;;;;;;;17.67;38.77;97813.28;5091946;28;20051;-46
2023/11/29 11:11:43;;;;;;;11.90;7.25;;;;;;;17.32;38.76;97807.72;5090764;28;20020;-46
2023/11/29 11:14:21;;;;;;;8.35;6.10;;;;;;;17.10;39.46;97813.28;5073818;28;20027;-45
2023/11/29 11:16:59;;;;;;;10.43;6.75;;;;;;;17.00;40.15;97815.13;5090558;28;20028;-46
2023/11/29 11:19:28;;;;;;;10.48;7.35;;;;;;;17.07;40.19;97810.38;5091838;28;20024;-45